Time;durP1;ratioP1;P1;durP2;ratioP2;P2;SDS_P1;SDS_P2;PMS_P1;PMS_P2;Temp;Humidity;BMP_temperature;BMP_pressure;BME280_temperature;BME280_humidity;BME280_pressure;Samples;Min_cycle;Max_cycle;Signal;HPM_P1;HPM_P2
2023/04/16 00:02:13;;;;;;;76.03;18.67;;;;;;;;;;5073441;28;20935;-67
2023/04/16 00:04:40;;;;;;;71.40;15.13;;;;;;;;;;5073426;28;20497;-68
2023/04/16 00:07:08;;;;;;;73.40;16.33;;;;;;;;;;5073124;28;20473;-69
2023/04/16 00:09:35;;;;;;;75.00;16.50;;;;;;;;;;5073063;28;20467;-68
2023/04/16 00:12:02;;;;;;;74.60;17.70;;;;;;;;;;5073452;28;20447;-69
2023/04/16 00:14:30;;;;;;;73.67;17.67;;;;;;;;;;5073201;28;20534;-68
2023/04/16 00:16:58;;;;;;;75.60;17.17;;;;;;;;;;5073116;28;20447;-68
2023/04/16 00:19:25;;;;;;;71.90;16.40;;;;;;;;;;5072682;28;20882;-68
2023/04/16 00:21:52;;;;;;;72.87;17.43;;;;;;;;;;5073155;28;20453;-68
2023/04/16 00:24:19;;;;;;;73.37;16.80;;;;;;;;;;5072880;28;21110;-68
2023/04/16 00:26:46;;;;;;;70.73;14.93;;;;;;;;;;5073050;28;20450;-68
2023/04/16 00:29:13;;;;;;;73.17;17.20;;;;;;;;;;5072677;28;20912;-67
2023/04/16 00:31:42;;;;;;;76.10;15.90;;;;;;;;;;5072754;28;20443;-69
2023/04/16 00:34:09;;;;;;;75.20;17.83;;;;;;;;;;5072817;28;20443;-68
2023/04/16 00:36:36;;;;;;;74.27;17.33;;;;;;;;;;5072851;28;20845;-68
2023/04/16 00:39:03;;;;;;;76.30;17.03;;;;;;;;;;5072630;28;20463;-68
2023/04/16 00:41:30;;;;;;;72.33;16.27;;;;;;;;;;5072842;28;20443;-68
2023/04/16 00:43:57;;;;;;;73.40;16.60;;;;;;;;;;5072391;28;20479;-69
2023/04/16 00:46:25;;;;;;;73.73;16.30;;;;;;;;;;5072486;28;20447;-68
2023/04/16 00:48:54;;;;;;;73.97;16.83;;;;;;;;;;5072301;28;20495;-68
2023/04/16 00:51:22;;;;;;;71.20;15.30;;;;;;;;;;5072339;28;20447;-68
2023/04/16 00:53:49;;;;;;;76.27;15.07;;;;;;;;;;5072587;28;20447;-68
2023/04/16 00:56:16;;;;;;;78.07;16.70;;;;;;;;;;5072289;28;20668;-68
2023/04/16 00:58:44;;;;;;;71.10;15.13;;;;;;;;;;5071807;28;20476;-68
2023/04/16 01:01:12;;;;;;;71.40;16.23;;;;;;;;;;5071453;28;20503;-67
2023/04/16 01:03:41;;;;;;;73.20;16.80;;;;;;;;;;5072442;28;20461;-68
2023/04/16 01:06:10;;;;;;;70.37;14.50;;;;;;;;;;5072340;28;20458;-68
2023/04/16 01:08:37;;;;;;;72.47;16.70;;;;;;;;;;5071872;28;20459;-68
2023/04/16 01:11:04;;;;;;;72.33;16.80;;;;;;;;;;5072155;28;20443;-68
2023/04/16 01:13:32;;;;;;;70.10;13.10;;;;;;;;;;5072016;28;20475;-69
2023/04/16 01:15:59;;;;;;;71.10;16.13;;;;;;;;;;5072574;28;20500;-68
2023/04/16 01:18:26;;;;;;;69.77;14.60;;;;;;;;;;5072068;28;20493;-68
2023/04/16 01:20:55;;;;;;;70.20;15.37;;;;;;;;;;5072006;28;20459;-68
2023/04/16 01:23:22;;;;;;;72.87;16.03;;;;;;;;;;5072180;28;20465;-68
2023/04/16 01:25:49;;;;;;;70.97;15.03;;;;;;;;;;5071952;28;20575;-67
2023/04/16 01:28:16;;;;;;;69.17;14.53;;;;;;;;;;5071599;28;20467;-68
2023/04/16 01:30:43;;;;;;;72.07;14.13;;;;;;;;;;5071898;28;20533;-68
2023/04/16 01:33:11;;;;;;;68.90;14.53;;;;;;;;;;5071875;28;20449;-68
2023/04/16 01:35:38;;;;;;;70.97;14.67;;;;;;;;;;5070215;28;20447;-68
2023/04/16 01:38:07;;;;;;;70.90;14.80;;;;;;;;;;5071699;28;20882;-68
2023/04/16 01:40:35;;;;;;;68.97;13.77;;;;;;;;;;5071473;28;20627;-68
2023/04/16 01:43:02;;;;;;;70.23;14.70;;;;;;;;;;5072075;28;20448;-68
2023/04/16 01:45:29;;;;;;;73.33;14.60;;;;;;;;;;5071634;28;20483;-68
2023/04/16 01:47:56;;;;;;;72.57;14.73;;;;;;;;;;5071680;28;20826;-68
2023/04/16 01:50:24;;;;;;;72.20;14.77;;;;;;;;;;5071502;28;20451;-68
2023/04/16 01:52:51;;;;;;;69.10;13.77;;;;;;;;;;5071697;28;20459;-69
2023/04/16 01:55:19;;;;;;;70.13;13.50;;;;;;;;;;5071510;28;20439;-68
2023/04/16 01:57:46;;;;;;;68.77;13.03;;;;;;;;;;5071534;28;20443;-68
2023/04/16 02:00:14;;;;;;;70.33;13.10;;;;;;;;;;5071507;28;20474;-68
2023/04/16 02:02:41;;;;;;;70.67;13.33;;;;;;;;;;5071718;28;20448;-69
2023/04/16 02:05:08;;;;;;;71.17;15.03;;;;;;;;;;5071466;28;20486;-68
2023/04/16 02:07:35;;;;;;;68.67;13.77;;;;;;;;;;5071421;28;20448;-68
2023/04/16 02:10:03;;;;;;;70.10;14.63;;;;;;;;;;5071066;28;20482;-68
2023/04/16 02:12:32;;;;;;;71.07;14.07;;;;;;;;;;5073120;28;20974;-68
2023/04/16 02:14:59;;;;;;;67.10;12.57;;;;;;;;;;5075279;28;20451;-68
2023/04/16 02:17:26;;;;;;;70.93;13.80;;;;;;;;;;5075453;28;20447;-68
2023/04/16 02:19:53;;;;;;;70.07;14.13;;;;;;;;;;5074921;28;20469;-68
2023/04/16 02:22:20;;;;;;;71.67;14.47;;;;;;;;;;5074960;28;20447;-69
2023/04/16 02:24:49;;;;;;;68.60;13.00;;;;;;;;;;5075108;28;20677;-68
2023/04/16 02:27:16;;;;;;;70.50;14.27;;;;;;;;;;5075184;28;20548;-69
2023/04/16 02:29:45;;;;;;;72.73;14.77;;;;;;;;;;5074879;28;20847;-68
2023/04/16 02:32:12;;;;;;;70.73;13.93;;;;;;;;;;5075093;28;20944;-69
2023/04/16 02:34:40;;;;;;;68.17;13.27;;;;;;;;;;5074894;28;20455;-67
2023/04/16 02:37:07;;;;;;;69.57;14.10;;;;;;;;;;5074973;28;20458;-68
2023/04/16 02:39:34;;;;;;;68.27;13.40;;;;;;;;;;5074680;28;20988;-68
2023/04/16 02:42:01;;;;;;;70.47;13.53;;;;;;;;;;5074974;28;20446;-68
2023/04/16 02:44:28;;;;;;;70.88;14.95;;;;;;;;;;5074848;28;20456;-68
2023/04/16 02:46:57;;;;;;;72.28;14.90;;;;;;;;;;5074856;28;20233;-68
2023/04/16 02:49:24;;;;;;;68.87;12.77;;;;;;;;;;5074322;28;20229;-69
2023/04/16 02:51:51;;;;;;;69.17;13.90;;;;;;;;;;5075136;28;20451;-68
2023/04/16 02:54:18;;;;;;;70.77;15.10;;;;;;;;;;5074833;28;20443;-69
2023/04/16 02:56:45;;;;;;;73.70;14.40;;;;;;;;;;5074748;28;20453;-68
2023/04/16 02:59:12;;;;;;;70.90;14.60;;;;;;;;;;5074239;28;20463;-68
2023/04/16 03:01:39;;;;;;;70.20;14.43;;;;;;;;;;5074534;28;20447;-68
2023/04/16 03:04:08;;;;;;;72.30;15.53;;;;;;;;;;5074576;28;20913;-69
2023/04/16 03:06:35;;;;;;;72.63;15.30;;;;;;;;;;5074301;28;20486;-69
2023/04/16 03:09:02;;;;;;;72.13;16.03;;;;;;;;;;5074222;28;20471;-68
2023/04/16 03:11:29;;;;;;;72.10;14.80;;;;;;;;;;5074525;28;20962;-68
2023/04/16 03:13:56;;;;;;;73.17;15.27;;;;;;;;;;5074350;28;20542;-67
2023/04/16 03:16:23;;;;;;;72.87;16.03;;;;;;;;;;5074160;28;20994;-68
2023/04/16 03:18:50;;;;;;;73.50;16.27;;;;;;;;;;5073940;28;20467;-68
2023/04/16 03:21:19;;;;;;;72.37;15.33;;;;;;;;;;5074349;28;20455;-68
2023/04/16 03:23:46;;;;;;;83.10;16.97;;;;;;;;;;5073546;28;20460;-69
2023/04/16 03:26:13;;;;;;;74.20;16.57;;;;;;;;;;5074120;28;20578;-68
2023/04/16 03:28:40;;;;;;;71.10;15.43;;;;;;;;;;5073635;28;21011;-68
2023/04/16 03:31:07;;;;;;;73.43;16.17;;;;;;;;;;5073586;28;20451;-68
2023/04/16 03:33:35;;;;;;;72.80;16.00;;;;;;;;;;5074092;28;20457;-68
2023/04/16 03:36:02;;;;;;;70.70;14.77;;;;;;;;;;5074198;28;20828;-68
2023/04/16 03:38:30;;;;;;;72.87;14.20;;;;;;;;;;5073765;28;20507;-68
2023/04/16 03:40:57;;;;;;;71.00;14.17;;;;;;;;;;5073731;28;20450;-68
2023/04/16 03:43:25;;;;;;;72.87;14.90;;;;;;;;;;5073732;28;20508;-68
2023/04/16 03:45:52;;;;;;;70.43;14.17;;;;;;;;;;5073580;28;20491;-69
2023/04/16 03:48:19;;;;;;;70.53;14.48;;;;;;;;;;5073452;28;20467;-68
2023/04/16 03:50:47;;;;;;;69.57;13.30;;;;;;;;;;5073484;28;20205;-68
2023/04/16 03:53:14;;;;;;;69.50;13.57;;;;;;;;;;5073642;28;20450;-68
2023/04/16 03:55:42;;;;;;;74.57;16.67;;;;;;;;;;5073482;28;20443;-68
2023/04/16 03:58:10;;;;;;;72.03;15.87;;;;;;;;;;5072790;28;20844;-68
2023/04/16 04:00:37;;;;;;;71.17;14.40;;;;;;;;;;5073411;28;20448;-68
2023/04/16 04:03:04;;;;;;;73.50;15.23;;;;;;;;;;5073516;28;20455;-68
2023/04/16 04:05:31;;;;;;;73.27;15.30;;;;;;;;;;5073193;28;20582;-67
2023/04/16 04:07:58;;;;;;;73.47;14.40;;;;;;;;;;5073159;28;20454;-69
2023/04/16 04:10:25;;;;;;;71.17;14.53;;;;;;;;;;5072998;28;20443;-68
2023/04/16 04:12:54;;;;;;;70.70;14.80;;;;;;;;;;5073017;28;20454;-69
2023/04/16 04:15:21;;;;;;;73.23;15.13;;;;;;;;;;5073063;28;20458;-68
2023/04/16 04:17:48;;;;;;;70.30;14.50;;;;;;;;;;5073188;28;20832;-68
2023/04/16 04:20:15;;;;;;;70.20;13.73;;;;;;;;;;5072992;28;20447;-68
2023/04/16 04:22:42;;;;;;;72.50;15.30;;;;;;;;;;5073003;28;20532;-67
2023/04/16 04:25:10;;;;;;;71.73;15.37;;;;;;;;;;5072739;28;21037;-67
2023/04/16 04:27:37;;;;;;;73.40;15.00;;;;;;;;;;5072814;28;20939;-69
2023/04/16 04:30:06;;;;;;;72.67;15.40;;;;;;;;;;5072619;28;20498;-68
2023/04/16 04:32:34;;;;;;;73.73;15.73;;;;;;;;;;5072986;28;20474;-68
2023/04/16 04:35:02;;;;;;;73.67;15.80;;;;;;;;;;5072814;28;20447;-69
2023/04/16 04:37:29;;;;;;;73.20;15.50;;;;;;;;;;5072667;28;20451;-68
2023/04/16 04:39:56;;;;;;;73.30;14.43;;;;;;;;;;5072239;28;20471;-68
2023/04/16 04:42:23;;;;;;;77.63;15.00;;;;;;;;;;5072838;28;20471;-68
2023/04/16 04:44:50;;;;;;;74.17;15.23;;;;;;;;;;5072424;28;20459;-68
2023/04/16 04:47:19;;;;;;;75.63;17.60;;;;;;;;;;5072433;28;20491;-69
2023/04/16 04:49:46;;;;;;;75.70;16.27;;;;;;;;;;5072081;28;20471;-68
2023/04/16 04:52:13;;;;;;;74.30;17.43;;;;;;;;;;5072477;28;20558;-68
2023/04/16 04:54:41;;;;;;;76.97;17.03;;;;;;;;;;5072798;28;20431;-68
2023/04/16 04:57:08;;;;;;;73.87;15.17;;;;;;;;;;5072717;28;20497;-68
2023/04/16 04:59:35;;;;;;;76.20;17.40;;;;;;;;;;5072269;28;20467;-68
2023/04/16 05:02:02;;;;;;;75.57;16.97;;;;;;;;;;5072482;28;20459;-68
2023/04/16 05:04:31;;;;;;;75.07;16.30;;;;;;;;;;5072343;28;20470;-69
2023/04/16 05:06:58;;;;;;;75.37;16.17;;;;;;;;;;5071960;28;20483;-68
2023/04/16 05:09:25;;;;;;;79.37;17.50;;;;;;;;;;5071988;28;20479;-68
2023/04/16 05:11:54;;;;;;;76.63;17.87;;;;;;;;;;5072380;28;20447;-69
2023/04/16 05:14:21;;;;;;;77.27;16.97;;;;;;;;;;5072192;28;20831;-68
2023/04/16 05:16:48;;;;;;;74.50;15.80;;;;;;;;;;5072158;28;20443;-69
2023/04/16 05:19:15;;;;;;;79.23;17.90;;;;;;;;;;5071545;28;20467;-68
2023/04/16 05:21:43;;;;;;;79.47;19.20;;;;;;;;;;5071979;28;20454;-69
2023/04/16 05:24:10;;;;;;;78.27;17.93;;;;;;;;;;5072114;28;20485;-68
2023/04/16 05:26:38;;;;;;;78.00;17.63;;;;;;;;;;5071836;28;20574;-68
2023/04/16 05:29:05;;;;;;;80.20;19.33;;;;;;;;;;5071532;28;20995;-68
2023/04/16 05:31:32;;;;;;;79.53;18.97;;;;;;;;;;5071864;28;20451;-67
2023/04/16 05:33:59;;;;;;;79.17;19.73;;;;;;;;;;5071723;28;20447;-69
2023/04/16 05:36:26;;;;;;;77.77;18.13;;;;;;;;;;5072027;28;20823;-68
2023/04/16 05:38:54;;;;;;;83.67;19.83;;;;;;;;;;5071572;28;20474;-68
2023/04/16 05:41:21;;;;;;;79.57;18.00;;;;;;;;;;5071729;28;20966;-68
2023/04/16 05:43:48;;;;;;;80.03;20.37;;;;;;;;;;5071807;28;20447;-68
2023/04/16 05:46:16;;;;;;;80.30;19.87;;;;;;;;;;5071990;28;20490;-68
2023/04/16 05:48:43;;;;;;;79.57;18.93;;;;;;;;;;5077669;28;20467;-68
2023/04/16 05:51:10;;;;;;;81.40;19.57;;;;;;;;;;5078300;28;20454;-68
2023/04/16 05:53:37;;;;;;;84.37;21.83;;;;;;;;;;5078740;28;20944;-68
2023/04/16 05:56:05;;;;;;;88.97;24.90;;;;;;;;;;5078446;28;20466;-68
2023/04/16 05:58:32;;;;;;;88.77;26.70;;;;;;;;;;5077994;28;20467;-68
2023/04/16 06:01:00;;;;;;;114.67;43.10;;;;;;;;;;5078139;28;20452;-68
2023/04/16 06:03:27;;;;;;;100.77;31.37;;;;;;;;;;5078185;28;20447;-68
2023/04/16 06:05:54;;;;;;;88.60;24.63;;;;;;;;;;5078078;28;20995;-68
2023/04/16 06:08:21;;;;;;;88.13;23.47;;;;;;;;;;5078248;28;20597;-68
2023/04/16 06:10:48;;;;;;;87.43;23.83;;;;;;;;;;5078073;28;20447;-68
2023/04/16 06:13:17;;;;;;;90.13;24.93;;;;;;;;;;5078554;28;20482;-68
2023/04/16 06:15:44;;;;;;;91.07;26.20;;;;;;;;;;5078245;28;20450;-67
2023/04/16 06:18:11;;;;;;;92.17;25.60;;;;;;;;;;5078009;28;20467;-68
2023/04/16 06:20:38;;;;;;;87.23;23.87;;;;;;;;;;5078010;28;20808;-68
2023/04/16 06:23:05;;;;;;;85.63;25.40;;;;;;;;;;5078175;28;20461;-68
2023/04/16 06:25:32;;;;;;;92.67;25.87;;;;;;;;;;5078030;28;20452;-68
2023/04/16 06:27:59;;;;;;;92.87;27.47;;;;;;;;;;5077762;28;20455;-68
2023/04/16 06:30:28;;;;;;;93.00;27.10;;;;;;;;;;5078163;28;20443;-69
2023/04/16 06:32:55;;;;;;;92.17;26.30;;;;;;;;;;5078152;28;20466;-67
2023/04/16 06:35:23;;;;;;;87.67;24.20;;;;;;;;;;5078089;28;20877;-68
2023/04/16 06:37:50;;;;;;;93.60;26.23;;;;;;;;;;5077946;28;20448;-69
2023/04/16 06:40:17;;;;;;;86.10;23.50;;;;;;;;;;5077625;28;20447;-67
2023/04/16 06:42:44;;;;;;;97.17;30.40;;;;;;;;;;5077717;28;20462;-68
2023/04/16 06:45:12;;;;;;;95.77;28.97;;;;;;;;;;5077776;28;20546;-67
2023/04/16 06:47:40;;;;;;;93.07;25.63;;;;;;;;;;5078044;28;20493;-67
2023/04/16 06:50:08;;;;;;;99.60;32.50;;;;;;;;;;5077468;28;20474;-67
2023/04/16 06:52:35;;;;;;;105.47;34.97;;;;;;;;;;5077856;28;20449;-68
2023/04/16 06:55:02;;;;;;;109.03;37.10;;;;;;;;;;5078279;28;20470;-68
2023/04/16 06:57:29;;;;;;;103.00;33.80;;;;;;;;;;5077867;28;20803;-68
2023/04/16 06:59:56;;;;;;;111.80;44.13;;;;;;;;;;5073309;28;20562;-68
2023/04/16 07:02:24;;;;;;;99.30;35.90;;;;;;;;;;5074173;28;20443;-68
2023/04/16 07:04:53;;;;;;;103.13;39.67;;;;;;;;;;5074477;28;20451;-68
2023/04/16 07:07:20;;;;;;;122.53;54.63;;;;;;;;;;5074416;28;20485;-68
2023/04/16 07:09:47;;;;;;;140.80;67.93;;;;;;;;;;5073872;28;20482;-68
2023/04/16 07:12:14;;;;;;;91.10;29.23;;;;;;;;;;5074582;28;20820;-68
2023/04/16 07:14:41;;;;;;;91.27;27.20;;;;;;;;;;5074628;28;20447;-69
2023/04/16 07:17:08;;;;;;;89.57;26.07;;;;;;;;;;5074484;28;20440;-68
2023/04/16 07:19:35;;;;;;;93.47;30.20;;;;;;;;;;5073809;28;20998;-69
2023/04/16 07:22:04;;;;;;;91.07;28.93;;;;;;;;;;5074141;28;20542;-68
2023/04/16 07:24:31;;;;;;;85.67;22.30;;;;;;;;;;5074078;28;20935;-68
2023/04/16 07:26:58;;;;;;;88.83;24.10;;;;;;;;;;5074405;28;20491;-68
2023/04/16 07:29:25;;;;;;;88.60;24.70;;;;;;;;;;5073631;28;20477;-69
2023/04/16 07:31:52;;;;;;;85.17;24.37;;;;;;;;;;5074112;28;20470;-68
2023/04/16 07:34:19;;;;;;;92.43;28.20;;;;;;;;;;5074014;28;20822;-69
2023/04/16 07:36:47;;;;;;;89.27;26.20;;;;;;;;;;5073718;28;20459;-68
2023/04/16 07:39:15;;;;;;;87.30;23.47;;;;;;;;;;5073579;28;20980;-69
2023/04/16 07:41:42;;;;;;;86.43;23.10;;;;;;;;;;5073890;28;20443;-68
2023/04/16 07:44:09;;;;;;;86.77;23.73;;;;;;;;;;5073731;28;20455;-68
2023/04/16 07:46:36;;;;;;;91.47;28.50;;;;;;;;;;5073691;28;20486;-68
2023/04/16 07:49:03;;;;;;;97.73;34.00;;;;;;;;;;5073330;28;21001;-68
2023/04/16 07:51:31;;;;;;;95.30;29.90;;;;;;;;;;5073812;28;20458;-68
2023/04/16 07:53:58;;;;;;;87.27;23.47;;;;;;;;;;5073843;28;20447;-68
2023/04/16 07:56:26;;;;;;;90.73;24.57;;;;;;;;;;5073584;28;20950;-68
2023/04/16 07:58:53;;;;;;;82.87;21.57;;;;;;;;;;5073078;28;21002;-67
2023/04/16 08:01:22;;;;;;;84.57;22.30;;;;;;;;;;5074091;28;20474;-68
2023/04/16 08:03:49;;;;;;;83.13;21.50;;;;;;;;;;5073229;28;20466;-68
2023/04/16 08:06:16;;;;;;;83.73;22.30;;;;;;;;;;5073437;28;20444;-68
2023/04/16 08:08:43;;;;;;;80.70;20.97;;;;;;;;;;5072865;28;20968;-68
2023/04/16 08:11:10;;;;;;;83.87;23.57;;;;;;;;;;5073037;28;20443;-68
2023/04/16 08:13:39;;;;;;;83.17;22.60;;;;;;;;;;5072994;28;20458;-68
2023/04/16 08:16:06;;;;;;;83.10;21.43;;;;;;;;;;5073185;28;20970;-68
2023/04/16 08:18:33;;;;;;;85.43;22.40;;;;;;;;;;5072622;28;20562;-69
2023/04/16 08:21:01;;;;;;;83.43;23.30;;;;;;;;;;5073269;28;20737;-68
2023/04/16 08:23:28;;;;;;;82.53;20.80;;;;;;;;;;5073084;28;20487;-68
2023/04/16 08:25:55;;;;;;;87.30;23.40;;;;;;;;;;5073057;28;20455;-69
2023/04/16 08:28:23;;;;;;;90.27;26.10;;;;;;;;;;5072405;28;20487;-68
2023/04/16 08:30:51;;;;;;;82.37;22.30;;;;;;;;;;5072585;28;20454;-68
2023/04/16 08:33:18;;;;;;;82.70;24.60;;;;;;;;;;5072725;28;20940;-68
2023/04/16 08:35:46;;;;;;;85.57;22.90;;;;;;;;;;5072953;28;20454;-69
2023/04/16 08:38:13;;;;;;;79.43;20.50;;;;;;;;;;5072520;28;20464;-68
2023/04/16 08:40:40;;;;;;;86.00;26.07;;;;;;;;;;5072164;28;20452;-68
2023/04/16 08:43:12;;;;;;;77.10;19.50;;;;;;;;;;5072647;28;20444;-68
2023/04/16 08:45:39;;;;;;;78.10;21.00;;;;;;;;;;5072503;28;20455;-67
2023/04/16 08:48:07;;;;;;;81.73;20.17;;;;;;;;;;5072440;28;20483;-68
2023/04/16 08:50:35;;;;;;;76.37;19.80;;;;;;;;;;5072306;28;20827;-68
2023/04/16 08:53:05;;;;;;;79.90;20.23;;;;;;;;;;5072599;28;20452;-68
2023/04/16 08:55:36;;;;;;;82.10;18.40;;;;;;;;;;5072669;28;20450;-69
2023/04/16 08:58:04;;;;;;;80.87;18.50;;;;;;;;;;5072160;28;20448;-68
2023/04/16 09:00:32;;;;;;;87.00;17.80;;;;;;;;;;5072304;28;20525;-69
2023/04/16 09:02:59;;;;;;;81.50;19.60;;;;;;;;;;5072330;28;20459;-68
2023/04/16 09:05:28;;;;;;;77.50;17.17;;;;;;;;;;5072363;28;20863;-68
2023/04/16 09:07:55;;;;;;;74.03;16.67;;;;;;;;;;5072046;28;20506;-69
2023/04/16 09:10:22;;;;;;;76.10;16.00;;;;;;;;;;5071861;28;20458;-66
2023/04/16 09:12:50;;;;;;;78.30;18.60;;;;;;;;;;5072059;28;20451;-69
2023/04/16 09:15:18;;;;;;;77.97;17.90;;;;;;;;;;5072340;28;20451;-68
2023/04/16 09:17:45;;;;;;;75.80;16.80;;;;;;;;;;5072192;28;20446;-69
2023/04/16 09:20:12;;;;;;;76.80;16.37;;;;;;;;;;5071665;28;20529;-68
2023/04/16 09:22:40;;;;;;;74.23;17.07;;;;;;;;;;5071388;28;20491;-68
2023/04/16 09:25:08;;;;;;;74.50;16.03;;;;;;;;;;5071845;28;20443;-69
2023/04/16 09:27:35;;;;;;;75.23;16.90;;;;;;;;;;5072131;28;20560;-69
2023/04/16 09:30:02;;;;;;;73.10;16.17;;;;;;;;;;5071729;28;20474;-67
2023/04/16 09:32:29;;;;;;;72.73;15.60;;;;;;;;;;5072277;28;20455;-66
2023/04/16 09:34:58;;;;;;;75.17;16.80;;;;;;;;;;5072073;28;20941;-69
2023/04/16 09:37:25;;;;;;;75.23;16.90;;;;;;;;;;5071834;28;20448;-67
2023/04/16 09:39:55;;;;;;;73.60;17.60;;;;;;;;;;5071368;28;21062;-66
2023/04/16 09:42:24;;;;;;;76.00;16.37;;;;;;;;;;5071945;28;20960;-66
2023/04/16 09:44:51;;;;;;;76.47;18.20;;;;;;;;;;5071916;28;20444;-67
2023/04/16 09:47:18;;;;;;;74.00;16.77;;;;;;;;;;5071762;28;20855;-67
2023/04/16 09:49:45;;;;;;;79.17;18.90;;;;;;;;;;5071258;28;21003;-68
2023/04/16 09:52:16;;;;;;;77.27;17.60;;;;;;;;;;5071642;28;20447;-66
2023/04/16 09:54:47;;;;;;;77.10;18.60;;;;;;;;;;5071566;28;20451;-70
2023/04/16 09:57:19;;;;;;;75.20;18.17;;;;;;;;;;5071840;28;20461;-68
2023/04/16 09:59:47;;;;;;;74.30;17.47;;;;;;;;;;5071214;28;20986;-67
2023/04/16 10:02:14;;;;;;;76.10;19.23;;;;;;;;;;5071709;28;20443;-68
2023/04/16 10:04:50;;;;;;;76.60;16.90;;;;;;;;;;5071679;28;20450;-67
2023/04/16 10:07:18;;;;;;;74.30;18.13;;;;;;;;;;5071837;28;20504;-67
2023/04/16 10:09:45;;;;;;;79.73;19.00;;;;;;;;;;5071236;28;20467;-68
2023/04/16 10:12:12;;;;;;;75.17;18.30;;;;;;;;;;5071458;28;20451;-68
2023/04/16 10:14:41;;;;;;;74.57;16.87;;;;;;;;;;5071472;28;20448;-68
2023/04/16 10:17:09;;;;;;;79.03;18.17;;;;;;;;;;5071431;28;20827;-69
2023/04/16 10:19:36;;;;;;;74.90;17.80;;;;;;;;;;5070953;28;20467;-68
2023/04/16 10:22:03;;;;;;;74.43;16.20;;;;;;;;;;5071593;28;20823;-68
2023/04/16 10:24:31;;;;;;;76.80;18.07;;;;;;;;;;5071287;28;20978;-68
2023/04/16 10:26:58;;;;;;;76.30;18.03;;;;;;;;;;5071316;28;20448;-68
2023/04/16 10:29:27;;;;;;;75.33;17.10;;;;;;;;;;5070994;28;20861;-68
2023/04/16 10:31:56;;;;;;;76.80;17.03;;;;;;;;;;5071115;28;20459;-68
2023/04/16 10:34:24;;;;;;;74.97;17.33;;;;;;;;;;5074156;28;20951;-68
2023/04/16 10:36:52;;;;;;;78.03;17.70;;;;;;;;;;5074965;28;20551;-69
2023/04/16 10:39:20;;;;;;;75.50;16.90;;;;;;;;;;5074722;28;20474;-69
2023/04/16 10:41:47;;;;;;;80.30;18.27;;;;;;;;;;5075012;28;20474;-68
2023/04/16 10:44:17;;;;;;;75.90;18.70;;;;;;;;;;5074908;28;20459;-69
2023/04/16 10:46:45;;;;;;;79.53;18.30;;;;;;;;;;5075136;28;20486;-69
2023/04/16 10:49:17;;;;;;;74.97;16.70;;;;;;;;;;5074494;28;20491;-69
2023/04/16 10:51:52;;;;;;;71.90;15.27;;;;;;;;;;5074918;28;20459;-68
2023/04/16 10:54:21;;;;;;;75.10;16.00;;;;;;;;;;5074845;28;20455;-68
2023/04/16 10:56:48;;;;;;;77.10;17.47;;;;;;;;;;5074534;28;20943;-68
2023/04/16 10:59:18;;;;;;;74.67;17.07;;;;;;;;;;5074274;28;20475;-67
2023/04/16 11:01:46;;;;;;;75.13;17.83;;;;;;;;;;5074626;28;20449;-68
2023/04/16 11:04:43;;;;;;;75.40;17.60;;;;;;;;;;5074732;28;20448;-68
2023/04/16 11:07:17;;;;;;;72.30;15.00;;;;;;;;;;5032111;28;20465;-69
2023/04/16 11:09:45;;;;;;;78.03;18.17;;;;;;;;;;5065849;28;20483;-68
2023/04/16 11:12:13;;;;;;;75.07;17.17;;;;;;;;;;5074564;28;20509;-67
2023/04/16 11:14:41;;;;;;;74.00;14.90;;;;;;;;;;5074570;28;20443;-68
2023/04/16 11:17:08;;;;;;;69.87;13.70;;;;;;;;;;5074452;28;20500;-67
2023/04/16 11:19:36;;;;;;;73.83;14.30;;;;;;;;;;5073889;28;20546;-68
2023/04/16 11:22:04;;;;;;;68.50;13.70;;;;;;;;;;5073956;28;20443;-68
2023/04/16 11:24:32;;;;;;;72.93;13.23;;;;;;;;;;5074136;28;21048;-67
2023/04/16 11:27:00;;;;;;;70.17;13.53;;;;;;;;;;5074228;28;20448;-68
2023/04/16 11:29:27;;;;;;;72.40;13.43;;;;;;;;;;5073767;28;20542;-68
2023/04/16 11:31:55;;;;;;;71.87;12.00;;;;;;;;;;5074252;28;20800;-69
2023/04/16 11:34:22;;;;;;;69.40;12.47;;;;;;;;;;5074129;28;20473;-68
2023/04/16 11:36:50;;;;;;;69.20;12.57;;;;;;;;;;5074195;28;20443;-69
2023/04/16 11:39:17;;;;;;;70.27;11.63;;;;;;;;;;5074004;28;20491;-68
2023/04/16 11:41:46;;;;;;;70.50;12.37;;;;;;;;;;5074096;28;20497;-68
2023/04/16 11:44:20;;;;;;;68.73;11.13;;;;;;;;;;5073644;28;20830;-69
2023/04/16 11:46:47;;;;;;;67.40;10.73;;;;;;;;;;5073493;28;20450;-69
2023/04/16 11:49:14;;;;;;;69.13;12.10;;;;;;;;;;5073531;28;20856;-69
2023/04/16 11:51:41;;;;;;;67.97;11.20;;;;;;;;;;5073823;28;20453;-69
2023/04/16 11:54:09;;;;;;;67.30;10.80;;;;;;;;;;5073743;28;20494;-69
2023/04/16 11:56:37;;;;;;;67.40;10.20;;;;;;;;;;5073532;28;20543;-69
2023/04/16 11:59:09;;;;;;;68.10;11.23;;;;;;;;;;5072868;28;20467;-69
2023/04/16 12:01:36;;;;;;;70.70;11.80;;;;;;;;;;5073378;28;20455;-69
2023/04/16 12:04:04;;;;;;;67.07;10.70;;;;;;;;;;5073605;28;20443;-68
2023/04/16 12:06:31;;;;;;;68.30;10.73;;;;;;;;;;5073224;28;20458;-68
2023/04/16 12:08:59;;;;;;;66.40;10.13;;;;;;;;;;5072989;28;20483;-68
2023/04/16 12:11:38;;;;;;;66.70;10.63;;;;;;;;;;5073255;28;20959;-68
2023/04/16 12:14:10;;;;;;;65.67;9.60;;;;;;;;;;5073194;28;20504;-68
2023/04/16 12:16:37;;;;;;;69.20;11.10;;;;;;;;;;5073333;28;20454;-68
2023/04/16 12:19:05;;;;;;;66.50;10.27;;;;;;;;;;5072763;28;20466;-68
2023/04/16 12:21:39;;;;;;;66.07;9.87;;;;;;;;;;5072602;28;20447;-67
2023/04/16 12:24:06;;;;;;;65.60;9.83;;;;;;;;;;5072938;28;20842;-68
2023/04/16 12:26:44;;;;;;;65.57;10.00;;;;;;;;;;5072793;28;20458;-68
2023/04/16 12:29:19;;;;;;;65.40;9.00;;;;;;;;;;5072506;28;20487;-68
2023/04/16 12:31:47;;;;;;;65.40;8.83;;;;;;;;;;5072907;28;20446;-69
2023/04/16 12:34:14;;;;;;;64.60;9.10;;;;;;;;;;5072948;28;20451;-68
2023/04/16 12:36:42;;;;;;;64.30;9.07;;;;;;;;;;5072612;28;20830;-68
2023/04/16 12:39:10;;;;;;;65.30;9.53;;;;;;;;;;5072244;28;20835;-68
2023/04/16 12:41:38;;;;;;;63.60;8.93;;;;;;;;;;5072493;28;20915;-68
2023/04/16 12:44:10;;;;;;;61.93;7.37;;;;;;;;;;5072114;28;20822;-69
2023/04/16 12:46:39;;;;;;;63.57;8.03;;;;;;;;;;5072695;28;20455;-67
2023/04/16 12:49:06;;;;;;;65.10;9.20;;;;;;;;;;5072100;28;20490;-68
2023/04/16 12:51:33;;;;;;;63.87;9.27;;;;;;;;;;5072327;28;20443;-68
2023/04/16 12:54:00;;;;;;;62.80;8.03;;;;;;;;;;5072706;28;20826;-71
2023/04/16 12:56:28;;;;;;;65.00;9.63;;;;;;;;;;5071574;28;20496;-69
2023/04/16 12:58:55;;;;;;;65.10;8.20;;;;;;;;;;5072031;28;20463;-68
2023/04/16 13:01:22;;;;;;;65.03;8.60;;;;;;;;;;5072354;28;20448;-68
2023/04/16 13:03:50;;;;;;;62.60;8.17;;;;;;;;;;5072258;28;20447;-68
2023/04/16 13:06:18;;;;;;;63.63;8.63;;;;;;;;;;5072178;28;20455;-68
2023/04/16 13:08:45;;;;;;;63.83;9.10;;;;;;;;;;5071913;28;20493;-68
2023/04/16 13:11:12;;;;;;;62.27;7.43;;;;;;;;;;5072294;28;20461;-68
2023/04/16 13:13:40;;;;;;;63.00;8.43;;;;;;;;;;5072191;28;20500;-68
2023/04/16 13:16:07;;;;;;;64.17;8.43;;;;;;;;;;5072084;28;20453;-69
2023/04/16 13:18:35;;;;;;;63.37;8.40;;;;;;;;;;5071331;28;20479;-69
2023/04/16 13:21:03;;;;;;;61.50;7.70;;;;;;;;;;5072185;28;20449;-69
2023/04/16 13:23:30;;;;;;;65.97;8.90;;;;;;;;;;5071815;28;20455;-69
2023/04/16 13:25:57;;;;;;;64.20;9.30;;;;;;;;;;5072208;28;20475;-69
2023/04/16 13:28:25;;;;;;;63.07;8.20;;;;;;;;;;5071809;28;20497;-69
2023/04/16 13:30:52;;;;;;;64.73;8.67;;;;;;;;;;5071658;28;20955;-69
2023/04/16 13:33:19;;;;;;;65.10;9.40;;;;;;;;;;5071783;28;20457;-69
2023/04/16 13:35:46;;;;;;;63.83;9.03;;;;;;;;;;5068837;28;20463;-68
2023/04/16 13:38:15;;;;;;;63.30;9.17;;;;;;;;;;5070387;28;20470;-68
2023/04/16 13:40:42;;;;;;;64.30;9.60;;;;;;;;;;5070993;28;20800;-67
2023/04/16 13:43:09;;;;;;;63.97;8.80;;;;;;;;;;5070920;28;20450;-67
2023/04/16 13:45:38;;;;;;;62.73;8.80;;;;;;;;;;5070687;28;20890;-68
2023/04/16 13:48:05;;;;;;;65.60;9.50;;;;;;;;;;5071044;28;20482;-68
2023/04/16 13:50:33;;;;;;;65.30;9.57;;;;;;;;;;5070918;28;20488;-69
2023/04/16 13:53:01;;;;;;;64.17;9.67;;;;;;;;;;5071868;28;20451;-69
2023/04/16 13:55:31;;;;;;;64.47;9.90;;;;;;;;;;5071744;28;20451;-69
2023/04/16 13:57:58;;;;;;;74.00;13.40;;;;;;;;;;5071407;28;20451;-71
2023/04/16 14:00:26;;;;;;;74.87;14.67;;;;;;;;;;5071314;28;20447;-68
2023/04/16 14:02:53;;;;;;;78.57;16.07;;;;;;;;;;5071756;28;20892;-69
2023/04/16 14:05:22;;;;;;;79.97;16.97;;;;;;;;;;5071752;28;20453;-69
2023/04/16 14:07:49;;;;;;;68.93;11.10;;;;;;;;;;5072311;28;20458;-69
2023/04/16 14:10:16;;;;;;;69.10;11.90;;;;;;;;;;5075162;28;20533;-70
2023/04/16 14:12:45;;;;;;;80.77;18.20;;;;;;;;;;5075511;28;20451;-69
2023/04/16 14:15:13;;;;;;;80.53;16.50;;;;;;;;;;5075700;28;20450;-70
2023/04/16 14:17:41;;;;;;;85.00;20.80;;;;;;;;;;5075334;28;20447;-70
2023/04/16 14:20:09;;;;;;;78.47;15.67;;;;;;;;;;5075087;28;20471;-68
2023/04/16 14:22:36;;;;;;;76.40;14.73;;;;;;;;;;5075482;28;20451;-68